createdAt,value
2022-11-03T00:04:47.974Z,96.25
2022-11-03T00:10:20.012Z,96.88
2022-11-03T00:15:51.444Z,97.39
2022-11-03T00:21:23.685Z,96.81
2022-11-03T00:26:55.038Z,97.89
2022-11-03T00:32:26.646Z,97.53
2022-11-03T00:37:58.618Z,98.01
2022-11-03T00:43:30.092Z,97.92
2022-11-03T00:49:01.818Z,98.16
2022-11-03T00:54:33.541Z,97.45
2022-11-03T01:00:05.157Z,97.2
2022-11-03T01:05:41.397Z,97.12
2022-11-03T01:11:13.107Z,97.51
2022-11-03T01:16:44.799Z,97.45
2022-11-03T01:22:16.514Z,97.23
2022-11-03T01:27:48.043Z,97.41
2022-11-03T01:33:19.991Z,97.17
2022-11-03T01:38:51.579Z,96.98
2022-11-03T01:44:23.332Z,97.71
2022-11-03T01:49:55.062Z,97.65
2022-11-03T01:55:26.693Z,97.83
2022-11-03T02:00:58.713Z,98.07
2022-11-03T02:06:34.703Z,97.79
2022-11-03T02:12:13.682Z,97.56
2022-11-03T02:17:45.008Z,97.17
2022-11-03T02:23:16.935Z,96.72
2022-11-03T02:28:48.602Z,96.94
2022-11-03T02:34:20.335Z,97.31
2022-11-03T02:39:51.967Z,97.55
2022-11-03T02:45:23.699Z,97.34
2022-11-03T02:50:55.512Z,97.25
2022-11-03T02:56:27.057Z,98.38
2022-11-03T03:01:58.910Z,98.26
2022-11-03T03:07:34.913Z,97.89
2022-11-03T03:13:07.366Z,98.53
2022-11-03T03:18:38.373Z,99.89
2022-11-03T03:24:10.089Z,99.69
2022-11-03T03:29:41.817Z,99.48
2022-11-03T03:35:13.590Z,99.03
2022-11-03T03:40:45.309Z,98.87
2022-11-03T03:46:16.977Z,99.21
2022-11-03T03:51:48.698Z,99.8
2022-11-03T03:57:20.563Z,99.28
2022-11-03T04:02:52.170Z,98.63
2022-11-03T04:08:28.211Z,100.0
2022-11-03T04:14:00.037Z,100.0
2022-11-03T04:19:31.697Z,100.0
2022-11-03T04:25:03.497Z,100.0
2022-11-03T04:30:35.141Z,100.0
2022-11-03T04:36:06.871Z,99.91
2022-11-03T04:41:38.592Z,99.79
2022-11-03T04:47:10.289Z,99.16
2022-11-03T04:52:42.078Z,98.83
2022-11-03T04:58:13.797Z,97.63
2022-11-03T05:03:45.469Z,97.96
2022-11-03T05:09:21.669Z,98.11
2022-11-03T05:14:58.875Z,98.01
2022-11-03T05:20:24.991Z,97.65
2022-11-03T05:25:57.214Z,97.74
2022-11-03T05:31:28.448Z,97.28
2022-11-03T05:37:00.135Z,97.69
2022-11-03T05:42:31.837Z,97.7
2022-11-03T05:48:04.524Z,97.51
2022-11-03T05:53:35.410Z,97.97
2022-11-03T05:59:07.262Z,97.15
2022-11-03T06:04:38.922Z,97.02
2022-11-03T06:10:14.910Z,97.62
2022-11-03T06:15:46.643Z,97.98
2022-11-03T06:21:18.398Z,97.95
2022-11-03T06:26:50.301Z,98.03
2022-11-03T06:32:22.010Z,100.0
2022-11-03T06:37:53.715Z,100.0
2022-11-03T06:43:25.318Z,100.0
2022-11-03T06:48:57.110Z,100.0
2022-11-03T06:54:28.927Z,99.77
2022-11-03T07:00:33.937Z,98.92
2022-11-03T07:05:32.469Z,99.06
2022-11-03T07:11:10.402Z,100.0
2022-11-03T07:16:42.290Z,100.0
2022-11-03T07:22:13.883Z,100.0
2022-11-03T07:27:45.562Z,100.0
2022-11-03T07:33:17.362Z,100.0
2022-11-03T07:38:48.979Z,100.0
2022-11-03T07:44:20.738Z,100.0
2022-11-03T07:49:52.488Z,100.0
2022-11-03T07:55:24.139Z,99.6
2022-11-03T08:00:55.988Z,98.7
2022-11-03T08:06:27.616Z,98.97
2022-11-03T08:12:03.795Z,98.55
2022-11-03T08:17:35.459Z,97.96
2022-11-03T08:23:26.591Z,97.38
2022-11-03T08:28:38.930Z,97.35
2022-11-03T08:34:10.614Z,96.84
2022-11-03T08:39:42.434Z,96.04
2022-11-03T08:45:14.101Z,96.07
2022-11-03T08:50:48.694Z,96.56
2022-11-03T08:56:23.041Z,95.75
2022-11-03T09:01:52.303Z,95.72
2022-11-03T09:07:24.813Z,95.24
2022-11-03T09:13:00.141Z,94.91
2022-11-03T09:18:31.815Z,94.88
2022-11-03T09:24:03.583Z,94.08
2022-11-03T09:30:13.078Z,94.71
2022-11-03T09:35:07.873Z,93.92
2022-11-03T09:40:39.710Z,93.44
2022-11-03T09:46:11.317Z,93.04
2022-11-03T09:51:46.049Z,92.18
2022-11-03T09:57:17.652Z,91.44
2022-11-03T10:02:49.417Z,90.25
2022-11-03T10:08:23.184Z,90.62
2022-11-03T10:13:59.295Z,89.49
2022-11-03T10:19:31.112Z,89.72
2022-11-03T10:25:02.771Z,89.86
2022-11-03T10:31:09.834Z,89.12
2022-11-03T10:36:06.262Z,88.63
2022-11-03T10:41:37.983Z,88.93
2022-11-03T10:47:09.644Z,88.78
2022-11-03T10:52:41.447Z,88.13
2022-11-03T10:58:13.122Z,88.43
2022-11-03T11:03:44.895Z,88.47
2022-11-03T11:09:16.571Z,88.17
2022-11-03T11:14:52.948Z,87.63
2022-11-03T11:20:24.453Z,87.25
2022-11-03T11:25:56.210Z,86.95
2022-11-03T11:31:27.948Z,87.61
2022-11-03T11:36:59.588Z,87.57
2022-11-03T11:42:35.060Z,87.91
2022-11-03T11:48:03.167Z,88.31
2022-11-03T11:53:34.867Z,87.6
2022-11-03T11:59:06.516Z,87.32
2022-11-03T12:05:03.265Z,87.02
2022-11-03T12:10:34.997Z,87.02
2022-11-03T12:16:11.067Z,86.95
2022-11-03T12:21:42.771Z,87.64
2022-11-03T12:27:14.570Z,87.42
2022-11-03T12:32:46.329Z,86.87
2022-11-03T12:38:17.937Z,86.52
2022-11-03T12:43:49.871Z,86.84
2022-11-03T12:49:21.498Z,87.02
2022-11-03T12:54:53.163Z,87.66
2022-11-03T13:00:24.827Z,87.45
2022-11-03T13:05:56.674Z,87.16
2022-11-03T13:11:28.362Z,87.28
2022-11-03T13:17:06.502Z,87.77
2022-11-03T13:22:38.178Z,87.13
2022-11-03T13:28:09.924Z,87.01
2022-11-03T13:33:41.724Z,86.43
2022-11-03T13:39:13.405Z,86.46
2022-11-03T13:44:45.177Z,86.11
2022-11-03T13:50:18.015Z,86.37
2022-11-03T13:55:48.557Z,87.62
2022-11-03T14:01:20.735Z,87.54
2022-11-03T14:06:52.086Z,88.22
2022-11-03T14:12:23.874Z,88.55
2022-11-03T14:17:59.939Z,88.05
2022-11-03T14:23:31.605Z,87.78
2022-11-03T14:29:03.442Z,88.43
2022-11-03T14:34:35.179Z,88.01
2022-11-03T14:40:06.901Z,88.22
2022-11-03T14:45:42.650Z,88.36
2022-11-03T14:51:10.284Z,88.7
2022-11-03T14:56:41.978Z,88.65
2022-11-03T15:02:13.928Z,88.0
2022-11-03T15:07:45.441Z,87.45
2022-11-03T15:13:17.265Z,87.65
2022-11-03T15:18:53.287Z,87.78
2022-11-03T15:25:21.546Z,88.07
2022-11-03T15:29:56.715Z,87.92
2022-11-03T15:35:28.585Z,87.92
2022-11-03T15:41:00.211Z,88.12
2022-11-03T15:46:31.865Z,88.29
2022-11-03T15:52:03.694Z,88.19
2022-11-03T15:57:35.394Z,87.89
2022-11-03T16:03:07.445Z,88.26
2022-11-03T16:08:38.826Z,88.25
2022-11-03T16:14:10.994Z,88.1
2022-11-03T16:19:48.634Z,88.54
2022-11-03T16:25:21.880Z,88.28
2022-11-03T16:30:55.039Z,88.15
2022-11-03T16:36:23.831Z,87.97
2022-11-03T16:41:55.640Z,88.13
2022-11-03T16:47:27.291Z,88.22
2022-11-03T16:52:58.931Z,88.15
2022-11-03T16:58:30.683Z,86.33
2022-11-03T17:04:02.846Z,85.96
2022-11-03T17:09:34.143Z,86.28
2022-11-03T17:15:05.823Z,85.74
2022-11-03T17:20:42.199Z,85.17
2022-11-03T17:26:14.614Z,84.49
2022-11-03T17:31:46.290Z,84.07
2022-11-03T17:37:17.830Z,83.77
2022-11-03T17:42:49.687Z,83.33
2022-11-03T17:48:21.422Z,83.99
2022-11-03T17:53:53.414Z,83.98
2022-11-03T17:59:25.055Z,84.71
2022-11-03T18:04:56.678Z,84.66
2022-11-03T18:10:28.400Z,84.28
2022-11-03T18:16:00.193Z,84.65
2022-11-03T18:21:36.237Z,84.07
2022-11-03T18:27:08.116Z,83.15
2022-11-03T18:32:39.752Z,84.65
2022-11-03T18:38:11.536Z,84.81
2022-11-03T18:43:43.266Z,85.02
2022-11-03T18:49:16.527Z,84.64
2022-11-03T18:54:48.203Z,85.29
2022-11-03T19:00:19.866Z,85.99
2022-11-03T19:05:51.674Z,87.32
2022-11-03T19:11:23.354Z,87.05
2022-11-03T19:17:22.220Z,88.42
2022-11-03T19:22:33.084Z,88.67
2022-11-03T19:28:04.974Z,88.82
2022-11-03T19:33:36.656Z,89.3
2022-11-03T19:39:08.404Z,89.0
2022-11-03T19:44:40.269Z,89.05
2022-11-03T19:50:11.862Z,90.42
2022-11-03T19:55:43.605Z,89.66
2022-11-03T20:01:15.644Z,90.17
2022-11-03T20:06:47.085Z,91.29
2022-11-03T20:12:18.793Z,90.87
2022-11-03T20:17:50.574Z,90.79
2022-11-03T20:23:26.682Z,92.46
2022-11-03T20:28:58.465Z,92.87
2022-11-03T20:34:30.142Z,93.94
2022-11-03T20:40:02.206Z,94.37
2022-11-03T20:45:33.609Z,94.17
2022-11-03T20:51:05.306Z,95.23
2022-11-03T20:56:36.926Z,95.26
2022-11-03T21:02:09.030Z,95.18
2022-11-03T21:07:40.482Z,95.0
2022-11-03T21:13:12.209Z,96.86
2022-11-03T21:18:43.897Z,98.81
2022-11-03T21:24:20.110Z,100.0
2022-11-03T21:30:00.399Z,100.0
2022-11-03T21:35:23.497Z,100.0
2022-11-03T21:40:57.083Z,100.0
2022-11-03T21:46:26.793Z,100.0
2022-11-03T21:51:58.534Z,100.0
2022-11-03T21:57:30.262Z,100.0
2022-11-03T22:03:02.057Z,100.0
2022-11-03T22:08:33.770Z,100.0
2022-11-03T22:14:05.543Z,100.0
2022-11-03T22:19:37.357Z,100.0
2022-11-03T22:25:15.409Z,100.0
2022-11-03T22:30:47.077Z,100.0
2022-11-03T22:36:22.245Z,100.0
2022-11-03T22:41:50.566Z,100.0
2022-11-03T22:47:22.302Z,100.0
2022-11-03T22:52:54.187Z,100.0
2022-11-03T22:58:30.929Z,100.0
2022-11-03T23:03:57.654Z,100.0
2022-11-03T23:09:30.186Z,100.0
2022-11-03T23:15:00.986Z,100.0
2022-11-03T23:20:32.713Z,100.0
2022-11-03T23:26:08.967Z,100.0
2022-11-03T23:31:40.658Z,100.0
2022-11-03T23:37:12.358Z,100.0
2022-11-03T23:42:44.076Z,100.0
2022-11-03T23:48:15.834Z,100.0
2022-11-03T23:53:47.494Z,100.0
2022-11-03T23:59:19.279Z,100.0
